createdAt,value
2023-04-27T00:01:16.671Z,1.80
2023-04-27T00:03:46.003Z,2.50
2023-04-27T00:06:12.997Z,1.92
2023-04-27T00:08:39.700Z,2.03
2023-04-27T00:11:06.709Z,2.28
2023-04-27T00:13:33.450Z,2.03
2023-04-27T00:16:03.675Z,1.60
2023-04-27T00:18:31.276Z,2.00
2023-04-27T00:20:58.668Z,2.00
2023-04-27T00:23:26.330Z,2.10
2023-04-27T00:25:53.002Z,1.95
2023-04-27T00:28:19.766Z,2.08
2023-04-27T00:30:46.655Z,2.17
2023-04-27T00:33:13.428Z,2.00
2023-04-27T00:35:40.077Z,1.90
2023-04-27T00:38:06.737Z,1.90
2023-04-27T00:40:33.353Z,1.90
2023-04-27T00:43:00.019Z,1.83
2023-04-27T00:45:26.663Z,2.15
2023-04-27T00:47:53.639Z,2.00
2023-04-27T00:50:29.550Z,2.00
2023-04-27T00:52:56.842Z,2.00
2023-04-27T00:55:24.549Z,1.58
2023-04-27T00:57:51.900Z,2.05
2023-04-27T01:00:18.712Z,1.70
2023-04-27T01:02:46.196Z,1.83
2023-04-27T01:05:13.528Z,1.90
2023-04-27T01:07:41.062Z,1.70
2023-04-27T01:10:08.517Z,1.90
2023-04-27T01:12:35.224Z,2.00
2023-04-27T01:15:01.956Z,1.98
2023-04-27T01:17:28.676Z,1.80
2023-04-27T01:19:56.867Z,1.70
2023-04-27T01:22:23.576Z,1.73
2023-04-27T01:24:50.241Z,2.17
2023-04-27T01:27:16.925Z,1.50
2023-04-27T01:29:44.641Z,1.90
2023-04-27T01:32:12.557Z,1.80
2023-04-27T01:34:39.303Z,1.67
2023-04-27T01:37:06.078Z,1.90
2023-04-27T01:39:32.927Z,1.83
2023-04-27T01:41:59.624Z,2.15
2023-04-27T01:44:26.423Z,1.80
2023-04-27T01:46:53.141Z,2.17
2023-04-27T01:49:19.908Z,1.80
2023-04-27T01:51:46.741Z,1.67
2023-04-27T01:54:13.441Z,1.60
2023-04-27T01:56:40.180Z,1.70
2023-04-27T01:59:06.932Z,1.75
2023-04-27T02:01:33.665Z,1.70
2023-04-27T02:04:00.571Z,2.10
2023-04-27T02:06:27.863Z,1.77
2023-04-27T02:08:54.511Z,1.67
2023-04-27T02:11:21.736Z,1.73
2023-04-27T02:13:48.958Z,1.80
2023-04-27T02:16:15.784Z,1.50
2023-04-27T02:18:42.917Z,1.90
2023-04-27T02:21:10.912Z,1.67
2023-04-27T02:23:37.892Z,1.90
2023-04-27T02:26:04.696Z,1.80
2023-04-27T02:28:32.352Z,2.28
2023-04-27T02:30:59.444Z,1.98
2023-04-27T02:33:26.109Z,2.00
2023-04-27T02:35:52.786Z,1.67
2023-04-27T02:38:19.441Z,1.80
2023-04-27T02:40:46.129Z,1.80
2023-04-27T02:43:12.776Z,1.90
2023-04-27T02:45:39.441Z,1.92
2023-04-27T02:48:06.510Z,1.77
2023-04-27T02:50:33.157Z,2.00
2023-04-27T02:52:59.911Z,2.58
2023-04-27T02:55:27.715Z,1.90
2023-04-27T02:57:54.382Z,2.95
2023-04-27T03:00:21.116Z,1.77
2023-04-27T03:02:47.901Z,1.80
2023-04-27T03:05:14.727Z,2.20
2023-04-27T03:07:41.410Z,1.80
2023-04-27T03:10:08.459Z,1.70
2023-04-27T03:12:35.286Z,2.00
2023-04-27T03:15:02.073Z,1.60
2023-04-27T03:17:29.047Z,2.05
2023-04-27T03:19:55.798Z,2.50
2023-04-27T03:22:22.467Z,1.92
2023-04-27T03:24:49.227Z,1.58
2023-04-27T03:27:15.889Z,1.77
2023-04-27T03:29:42.535Z,1.70
2023-04-27T03:32:09.254Z,1.90
2023-04-27T03:34:36.948Z,1.70
2023-04-27T03:37:03.655Z,1.90
2023-04-27T03:39:30.385Z,1.88
2023-04-27T03:41:57.681Z,1.90
2023-04-27T03:44:24.499Z,1.65
2023-04-27T03:46:51.458Z,1.95
2023-04-27T03:49:18.087Z,1.90
2023-04-27T03:51:44.745Z,1.52
2023-04-27T03:54:11.656Z,1.80
2023-04-27T03:56:38.320Z,1.92
2023-04-27T03:59:05.339Z,1.50
2023-04-27T04:01:32.236Z,1.60
2023-04-27T04:03:59.116Z,1.92
2023-04-27T04:06:26.232Z,1.50
2023-04-27T04:08:52.904Z,1.98
2023-04-27T04:11:19.557Z,2.05
2023-04-27T04:13:47.466Z,1.88
2023-04-27T04:16:14.204Z,1.73
2023-04-27T04:18:41.009Z,1.77
2023-04-27T04:21:10.144Z,1.70
2023-04-27T04:23:37.730Z,1.70
2023-04-27T04:26:05.679Z,1.75
2023-04-27T04:28:32.471Z,2.20
2023-04-27T04:31:01.228Z,1.60
2023-04-27T04:33:28.369Z,2.00
2023-04-27T04:35:55.054Z,1.92
2023-04-27T04:38:21.774Z,1.63
2023-04-27T04:40:48.638Z,2.13
2023-04-27T04:43:15.443Z,1.90
2023-04-27T04:45:42.846Z,1.83
2023-04-27T04:48:10.420Z,2.10
2023-04-27T04:50:37.173Z,2.35
2023-04-27T04:53:03.869Z,2.22
2023-04-27T04:55:30.710Z,1.75
2023-04-27T04:57:57.380Z,3.20
2023-04-27T05:00:24.357Z,2.10
2023-04-27T05:02:51.299Z,2.10
2023-04-27T05:05:18.136Z,2.35
2023-04-27T05:07:45.041Z,1.80
2023-04-27T05:10:11.916Z,2.13
2023-04-27T05:12:38.822Z,2.20
2023-04-27T05:15:06.072Z,1.90
2023-04-27T05:17:32.814Z,1.80
2023-04-27T05:19:59.592Z,2.15
2023-04-27T05:22:26.384Z,1.80
2023-04-27T05:24:53.062Z,2.22
2023-04-27T05:27:19.696Z,2.22
2023-04-27T05:29:46.399Z,2.20
2023-04-27T05:32:13.106Z,2.40
2023-04-27T05:34:39.852Z,2.22
2023-04-27T05:37:06.703Z,3.05
2023-04-27T05:39:33.484Z,2.80
2023-04-27T05:42:00.142Z,2.25
2023-04-27T05:44:29.511Z,2.83
2023-04-27T05:46:56.484Z,2.72
2023-04-27T05:49:23.591Z,2.40
2023-04-27T05:51:50.369Z,2.70
2023-04-27T05:54:17.002Z,2.53
2023-04-27T05:56:43.682Z,2.60
2023-04-27T05:59:10.410Z,2.13
2023-04-27T06:01:37.120Z,3.22
2023-04-27T06:04:04.299Z,2.78
2023-04-27T06:06:33.115Z,3.20
2023-04-27T06:09:00.031Z,2.33
2023-04-27T06:11:26.957Z,2.30
2023-04-27T06:13:53.800Z,4.45
2023-04-27T06:16:21.356Z,3.08
2023-04-27T06:18:50.044Z,3.08
2023-04-27T06:21:17.904Z,3.17
2023-04-27T06:23:44.784Z,2.67
2023-04-27T06:26:11.693Z,3.03
2023-04-27T06:28:38.524Z,3.22
2023-04-27T06:31:06.383Z,3.13
2023-04-27T06:33:33.641Z,2.97
2023-04-27T06:36:01.459Z,2.60
2023-04-27T06:38:28.529Z,2.58
2023-04-27T06:40:55.218Z,2.90
2023-04-27T06:43:22.398Z,2.78
2023-04-27T06:45:49.108Z,3.38
2023-04-27T06:48:15.996Z,2.70
2023-04-27T06:50:43.412Z,2.33
2023-04-27T06:53:10.657Z,2.90
2023-04-27T06:55:37.307Z,3.38
2023-04-27T06:58:04.556Z,3.20
2023-04-27T07:00:32.029Z,2.92
2023-04-27T07:02:59.003Z,3.25
2023-04-27T07:05:26.478Z,3.30
2023-04-27T07:07:53.321Z,3.65
2023-04-27T07:10:20.287Z,3.05
2023-04-27T07:12:49.129Z,3.50
2023-04-27T07:15:15.948Z,3.53
2023-04-27T07:17:42.711Z,3.25
2023-04-27T07:20:09.612Z,3.00
2023-04-27T07:22:36.516Z,3.45
2023-04-27T07:25:04.055Z,3.15
2023-04-27T07:27:32.036Z,3.28
2023-04-27T07:29:59.232Z,2.50
2023-04-27T07:32:26.347Z,3.50
2023-04-27T07:34:55.635Z,2.97
2023-04-27T07:37:22.970Z,3.25
2023-04-27T07:39:52.140Z,2.95
2023-04-27T07:42:20.047Z,3.20
2023-04-27T07:44:47.477Z,3.78
2023-04-27T07:47:14.524Z,3.50
2023-04-27T07:49:41.271Z,2.63
2023-04-27T07:52:08.418Z,2.38
2023-04-27T07:54:35.367Z,2.88
2023-04-27T07:57:02.425Z,4.25
2023-04-27T07:59:30.316Z,3.60
2023-04-27T08:02:07.018Z,3.22
2023-04-27T08:04:44.302Z,3.30
2023-04-27T08:07:11.754Z,3.50
2023-04-27T08:09:38.674Z,3.47
2023-04-27T08:12:06.208Z,3.53
2023-04-27T08:14:35.449Z,3.22
2023-04-27T08:17:02.642Z,2.90
2023-04-27T08:19:29.454Z,3.40
2023-04-27T08:21:56.227Z,3.20
2023-04-27T08:24:22.890Z,2.80
2023-04-27T08:26:49.623Z,3.35
2023-04-27T08:29:26.959Z,3.55
2023-04-27T08:31:56.914Z,3.38
2023-04-27T08:34:24.114Z,3.45
2023-04-27T08:36:51.091Z,4.07
2023-04-27T08:39:18.494Z,3.28
2023-04-27T08:41:45.562Z,3.17
2023-04-27T08:44:12.344Z,3.40
2023-04-27T08:46:39.911Z,3.50
2023-04-27T08:49:10.104Z,4.20
2023-04-27T08:51:36.910Z,4.13
2023-04-27T08:54:03.793Z,3.45
2023-04-27T08:56:31.160Z,3.70
2023-04-27T08:58:59.136Z,4.03
2023-04-27T09:01:29.118Z,3.45
2023-04-27T09:03:58.201Z,4.47
2023-04-27T09:06:32.792Z,3.97
2023-04-27T09:09:00.117Z,4.05
2023-04-27T09:11:31.891Z,3.67
2023-04-27T09:14:00.326Z,3.55
2023-04-27T09:16:29.342Z,3.50
2023-04-27T09:18:57.469Z,3.83
2023-04-27T09:21:29.676Z,4.60
2023-04-27T09:23:56.821Z,3.38
2023-04-27T09:26:26.978Z,4.10
2023-04-27T09:28:58.616Z,3.95
2023-04-27T09:31:37.097Z,4.50
2023-04-27T09:34:04.307Z,3.65
2023-04-27T09:36:33.202Z,3.67
2023-04-27T09:39:04.808Z,3.63
2023-04-27T09:41:32.873Z,3.83
2023-04-27T09:44:01.690Z,4.30
2023-04-27T09:46:29.622Z,4.63
2023-04-27T09:48:56.796Z,4.63
2023-04-27T09:51:23.480Z,4.50
2023-04-27T09:53:54.167Z,4.30
2023-04-27T09:56:32.886Z,4.13
2023-04-27T09:59:08.749Z,4.35
2023-04-27T10:01:41.971Z,4.75
2023-04-27T10:04:45.732Z,4.55
2023-04-27T10:07:14.492Z,4.47
2023-04-27T10:09:43.648Z,4.40
2023-04-27T10:12:36.458Z,3.92
2023-04-27T10:15:13.324Z,3.87
2023-04-27T10:17:49.162Z,4.18
2023-04-27T10:20:16.627Z,3.88
2023-04-27T10:22:48.220Z,3.58
2023-04-27T10:25:21.742Z,4.05
2023-04-27T10:27:57.874Z,4.38
2023-04-27T10:30:27.587Z,4.72
2023-04-27T10:32:56.841Z,3.90
2023-04-27T10:35:45.968Z,4.63
2023-04-27T10:38:17.706Z,4.05
2023-04-27T10:40:46.679Z,4.38
2023-04-27T10:43:16.264Z,4.50
2023-04-27T10:45:43.908Z,3.97
2023-04-27T10:48:16.954Z,4.15
2023-04-27T10:50:47.006Z,4.63
2023-04-27T10:53:17.557Z,4.60
2023-04-27T10:55:44.242Z,5.07
2023-04-27T10:58:11.035Z,3.83
2023-04-27T11:00:44.661Z,3.85
2023-04-27T11:03:24.169Z,4.18
2023-04-27T11:06:03.065Z,3.95
2023-04-27T11:08:30.879Z,3.80
2023-04-27T11:10:57.795Z,4.32
2023-04-27T11:13:26.511Z,3.85
2023-04-27T11:15:58.155Z,4.25
2023-04-27T11:18:29.309Z,4.38
2023-04-27T11:21:07.736Z,3.53
2023-04-27T11:23:38.615Z,4.38
2023-04-27T11:26:17.020Z,4.18
2023-04-27T11:28:59.893Z,5.28
2023-04-27T11:31:27.596Z,4.10
2023-04-27T11:33:55.974Z,4.53
2023-04-27T11:36:24.523Z,4.05
2023-04-27T11:38:51.190Z,4.70
2023-04-27T11:41:17.994Z,3.75
2023-04-27T11:43:51.384Z,4.75
2023-04-27T11:46:22.395Z,5.65
2023-04-27T11:48:49.431Z,3.90
2023-04-27T11:51:16.212Z,4.57
2023-04-27T11:53:48.244Z,5.22
2023-04-27T11:56:14.889Z,4.25
2023-04-27T11:58:42.580Z,4.88
2023-04-27T12:01:12.039Z,4.78
2023-04-27T12:03:39.151Z,3.88
2023-04-27T12:06:27.780Z,6.95
2023-04-27T12:08:53.414Z,5.03
2023-04-27T12:11:20.916Z,4.28
2023-04-27T12:13:48.292Z,4.35
2023-04-27T12:16:15.018Z,3.85
2023-04-27T12:18:41.817Z,4.43
2023-04-27T12:21:08.755Z,4.43
2023-04-27T12:23:35.687Z,4.97
2023-04-27T12:26:03.108Z,3.67
2023-04-27T12:28:29.957Z,4.75
2023-04-27T12:30:56.919Z,4.63
2023-04-27T12:33:23.729Z,4.65
2023-04-27T12:35:50.620Z,3.63
2023-04-27T12:38:17.302Z,4.93
2023-04-27T12:40:44.017Z,4.85
2023-04-27T12:43:11.097Z,4.57
2023-04-27T12:45:37.756Z,3.60
2023-04-27T12:48:04.724Z,4.40
2023-04-27T12:50:34.398Z,4.85
2023-04-27T12:53:01.355Z,5.00
2023-04-27T12:57:58.380Z,32.40
2023-04-27T13:00:25.601Z,27.80
2023-04-27T13:02:53.103Z,10.90
2023-04-27T13:05:21.087Z,68.93
2023-04-27T13:07:48.020Z,7.45
2023-04-27T13:10:14.872Z,6.60
2023-04-27T13:12:41.675Z,5.18
2023-04-27T13:15:09.299Z,5.63
2023-04-27T13:17:36.186Z,5.85
2023-04-27T13:20:03.299Z,5.30
2023-04-27T13:22:30.041Z,7.95
2023-04-27T13:24:56.811Z,5.43
2023-04-27T13:27:25.341Z,5.40
2023-04-27T13:29:52.226Z,5.97
2023-04-27T13:32:18.941Z,6.10
2023-04-27T13:34:45.816Z,5.35
2023-04-27T13:37:12.555Z,6.45
2023-04-27T13:39:39.259Z,4.47
2023-04-27T13:42:06.630Z,5.47
2023-04-27T13:44:33.751Z,6.88
2023-04-27T13:47:00.581Z,5.70
2023-04-27T13:49:27.313Z,6.38
2023-04-27T13:51:53.994Z,6.80
2023-04-27T13:54:21.656Z,6.13
2023-04-27T13:56:48.538Z,6.70
2023-04-27T13:59:16.751Z,7.15
2023-04-27T14:01:43.705Z,6.45
2023-04-27T14:04:10.852Z,7.25
2023-04-27T14:06:37.787Z,7.13
2023-04-27T14:09:04.662Z,5.57
2023-04-27T14:11:35.348Z,6.53
2023-04-27T14:14:06.822Z,6.88
2023-04-27T14:16:33.588Z,6.72
2023-04-27T14:19:00.338Z,6.15
2023-04-27T14:21:28.178Z,7.68
2023-04-27T14:23:54.916Z,6.50
2023-04-27T14:26:22.062Z,7.00
2023-04-27T14:28:48.800Z,6.00
2023-04-27T14:31:16.116Z,5.78
2023-04-27T14:33:42.811Z,7.00
2023-04-27T14:36:09.800Z,8.40
2023-04-27T14:38:36.482Z,6.70
2023-04-27T14:41:03.218Z,7.25
2023-04-27T14:43:29.921Z,7.10
2023-04-27T14:46:08.149Z,7.63
2023-04-27T14:48:43.666Z,6.95
2023-04-27T14:51:11.177Z,5.93
2023-04-27T14:53:37.981Z,7.65
2023-04-27T14:56:05.268Z,6.60
2023-04-27T14:58:34.981Z,6.40
2023-04-27T15:01:02.061Z,6.28
2023-04-27T15:03:28.949Z,6.55
2023-04-27T15:05:56.005Z,8.60
2023-04-27T15:08:22.814Z,8.43
2023-04-27T15:10:49.733Z,14.93
2023-04-27T15:13:16.926Z,17.17
2023-04-27T15:15:46.783Z,9.88
2023-04-27T15:18:13.562Z,11.63
2023-04-27T15:20:40.345Z,11.07
2023-04-27T15:23:07.014Z,11.75
2023-04-27T15:25:33.828Z,9.18
2023-04-27T15:28:03.226Z,12.68
2023-04-27T15:30:30.101Z,10.15
2023-04-27T15:32:57.009Z,11.27
2023-04-27T15:35:23.969Z,13.13
2023-04-27T15:37:52.249Z,12.05
2023-04-27T15:40:19.158Z,12.40
2023-04-27T15:42:46.093Z,17.73
2023-04-27T15:45:12.862Z,10.85
2023-04-27T15:47:39.672Z,11.75
2023-04-27T15:50:06.826Z,11.27
2023-04-27T15:52:33.997Z,12.48
2023-04-27T15:55:06.787Z,13.98
2023-04-27T15:57:33.581Z,15.48
2023-04-27T16:00:00.588Z,15.80
2023-04-27T16:02:27.582Z,11.48
2023-04-27T16:04:56.395Z,13.50
2023-04-27T16:07:23.167Z,14.63
2023-04-27T16:09:50.032Z,15.68
2023-04-27T16:12:17.032Z,14.18
2023-04-27T16:14:43.749Z,14.25
2023-04-27T16:17:10.876Z,14.48
2023-04-27T16:19:37.534Z,14.57
2023-04-27T16:22:04.380Z,15.68
2023-04-27T16:24:31.505Z,14.70
2023-04-27T16:26:58.373Z,17.02
2023-04-27T16:31:53.265Z,13.93
2023-04-27T16:34:20.075Z,14.45
2023-04-27T16:36:48.566Z,15.30
2023-04-27T16:39:16.192Z,14.77
2023-04-27T16:41:43.346Z,14.75
2023-04-27T16:44:11.655Z,15.50
2023-04-27T16:46:38.396Z,14.60
2023-04-27T16:49:05.232Z,13.10
2023-04-27T16:51:32.270Z,16.02
2023-04-27T16:53:59.520Z,15.70
2023-04-27T16:56:31.592Z,17.15
2023-04-27T16:58:59.010Z,36.60
2023-04-27T17:01:29.011Z,16.90
2023-04-27T17:04:01.186Z,19.75
2023-04-27T17:06:28.659Z,19.20
2023-04-27T17:08:56.431Z,56.40
2023-04-27T17:11:23.248Z,22.85
2023-04-27T17:13:50.573Z,17.10
2023-04-27T17:16:18.153Z,16.80
2023-04-27T17:18:46.574Z,16.02
2023-04-27T17:21:13.440Z,20.55
2023-04-27T17:23:41.572Z,18.52
2023-04-27T17:26:08.623Z,15.57
2023-04-27T17:28:35.324Z,15.07
2023-04-27T17:31:02.181Z,17.15
2023-04-27T17:33:28.862Z,13.80
2023-04-27T17:35:55.718Z,13.80
2023-04-27T17:38:22.385Z,17.10
2023-04-27T17:40:49.094Z,17.42
2023-04-27T17:43:15.803Z,16.02
2023-04-27T17:45:42.893Z,14.75
2023-04-27T17:48:09.672Z,16.13
2023-04-27T17:50:38.273Z,13.05
2023-04-27T17:53:04.970Z,13.43
2023-04-27T17:55:31.748Z,12.68
2023-04-27T17:57:58.445Z,12.95
2023-04-27T18:00:25.200Z,11.30
2023-04-27T18:02:52.043Z,12.32
2023-04-27T18:05:18.918Z,11.68
2023-04-27T18:07:46.806Z,10.30
2023-04-27T18:10:13.845Z,8.98
2023-04-27T18:12:40.509Z,9.88
2023-04-27T18:15:09.663Z,11.13
2023-04-27T18:17:36.891Z,10.07
2023-04-27T18:20:09.551Z,10.15
2023-04-27T18:22:39.485Z,9.48
2023-04-27T18:25:06.840Z,10.20
2023-04-27T18:27:33.527Z,9.82
2023-04-27T18:30:00.220Z,11.15
2023-04-27T18:32:26.893Z,9.18
2023-04-27T18:34:54.046Z,9.80
2023-04-27T18:37:20.944Z,10.98
2023-04-27T18:39:47.672Z,11.23
2023-04-27T18:42:14.459Z,11.02
2023-04-27T18:44:41.789Z,10.02
2023-04-27T18:47:08.470Z,9.30
2023-04-27T18:49:35.157Z,10.68
2023-04-27T18:52:01.936Z,11.10
2023-04-27T18:54:28.727Z,9.50
2023-04-27T18:56:55.966Z,12.00
2023-04-27T18:59:22.686Z,9.55
2023-04-27T19:01:49.407Z,10.57
2023-04-27T19:04:16.698Z,10.35
2023-04-27T19:06:43.618Z,9.43
2023-04-27T19:09:10.317Z,9.50
2023-04-27T19:11:37.012Z,8.93
2023-04-27T19:14:03.725Z,12.75
2023-04-27T19:16:30.526Z,10.88
2023-04-27T19:18:57.312Z,9.18
2023-04-27T19:21:24.149Z,9.85
2023-04-27T19:23:51.263Z,9.05
2023-04-27T19:26:17.966Z,8.77
2023-04-27T19:28:44.755Z,7.97
2023-04-27T19:31:11.583Z,8.25
2023-04-27T19:33:38.414Z,9.98
2023-04-27T19:36:05.329Z,10.13
2023-04-27T19:38:32.185Z,8.05
2023-04-27T19:40:58.886Z,10.32
2023-04-27T19:43:25.605Z,8.27
2023-04-27T19:45:52.320Z,9.30
2023-04-27T19:48:18.965Z,10.43
2023-04-27T19:50:45.830Z,8.40
2023-04-27T19:53:12.501Z,8.07
2023-04-27T19:55:40.494Z,6.97
2023-04-27T19:58:07.307Z,8.35
2023-04-27T20:00:34.307Z,8.52
2023-04-27T20:03:01.317Z,8.15
2023-04-27T20:05:28.493Z,7.00
2023-04-27T20:07:55.521Z,7.63
2023-04-27T20:10:22.355Z,7.90
2023-04-27T20:12:56.592Z,7.03
2023-04-27T20:15:24.451Z,7.45
2023-04-27T20:17:51.906Z,8.65
2023-04-27T20:20:19.370Z,7.18
2023-04-27T20:22:46.126Z,7.85
2023-04-27T20:25:14.741Z,9.02
2023-04-27T20:27:41.935Z,11.00
2023-04-27T20:30:09.369Z,9.07
2023-04-27T20:32:36.484Z,8.05
2023-04-27T20:35:04.923Z,9.95
2023-04-27T20:37:32.784Z,8.23
2023-04-27T20:39:59.555Z,8.45
2023-04-27T20:42:26.349Z,7.50
2023-04-27T20:44:54.899Z,9.73
2023-04-27T20:47:22.021Z,12.43
2023-04-27T20:49:48.980Z,9.70
2023-04-27T20:52:15.812Z,8.57
2023-04-27T20:54:42.535Z,7.65
2023-04-27T20:57:13.544Z,8.85
2023-04-27T20:59:41.150Z,7.22
2023-04-27T21:02:08.411Z,9.27
2023-04-27T21:04:35.275Z,9.75
2023-04-27T21:07:02.073Z,9.65
2023-04-27T21:09:28.789Z,10.27
2023-04-27T21:11:55.530Z,9.25
2023-04-27T21:14:22.170Z,11.63
2023-04-27T21:16:49.024Z,12.35
2023-04-27T21:19:16.736Z,11.15
2023-04-27T21:21:43.378Z,11.13
2023-04-27T21:24:10.428Z,10.77
2023-04-27T21:26:37.330Z,10.20
2023-04-27T21:29:05.987Z,10.52
2023-04-27T21:31:33.783Z,8.50
2023-04-27T21:34:00.889Z,10.27
2023-04-27T21:36:27.821Z,9.90
2023-04-27T21:38:54.672Z,10.90
2023-04-27T21:41:21.576Z,10.70
2023-04-27T21:43:48.292Z,9.52
2023-04-27T21:46:14.995Z,10.02
2023-04-27T21:48:41.661Z,9.50
2023-04-27T21:51:08.412Z,11.27
2023-04-27T21:53:35.093Z,11.23
2023-04-27T21:56:01.781Z,9.40
2023-04-27T21:58:28.670Z,10.30
2023-04-27T22:00:55.371Z,9.13
2023-04-27T22:03:22.758Z,11.15
2023-04-27T22:05:50.347Z,10.90
2023-04-27T22:08:17.517Z,11.85
2023-04-27T22:10:44.884Z,9.88
2023-04-27T22:13:18.819Z,10.25
2023-04-27T22:15:47.115Z,9.57
2023-04-27T22:18:15.044Z,10.90
2023-04-27T22:20:42.461Z,9.30
2023-04-27T22:23:09.678Z,10.40
2023-04-27T22:25:36.464Z,9.38
2023-04-27T22:28:03.137Z,9.90
2023-04-27T22:30:30.473Z,11.05
2023-04-27T22:32:57.707Z,11.38
2023-04-27T22:35:26.952Z,9.45
2023-04-27T22:37:58.063Z,9.32
2023-04-27T22:40:24.954Z,8.88
2023-04-27T22:42:52.071Z,13.00
2023-04-27T22:45:18.793Z,11.40
2023-04-27T22:47:46.130Z,11.40
2023-04-27T22:50:13.396Z,10.77
2023-04-27T22:52:42.417Z,11.10
2023-04-27T22:55:10.309Z,12.20
2023-04-27T22:57:38.212Z,10.43
2023-04-27T23:00:05.709Z,10.52
2023-04-27T23:02:32.591Z,12.75
2023-04-27T23:04:59.376Z,12.07
2023-04-27T23:07:26.064Z,10.95
2023-04-27T23:09:53.078Z,9.23
2023-04-27T23:12:20.820Z,9.73
2023-04-27T23:14:47.559Z,12.80
2023-04-27T23:17:17.167Z,10.70
2023-04-27T23:19:43.847Z,11.05
2023-04-27T23:22:10.586Z,12.13
2023-04-27T23:24:37.236Z,10.00
2023-04-27T23:27:04.090Z,9.85
2023-04-27T23:29:31.387Z,10.68
2023-04-27T23:32:04.711Z,9.98
2023-04-27T23:34:34.247Z,10.82
2023-04-27T23:37:01.058Z,8.35
2023-04-27T23:39:28.264Z,7.45
2023-04-27T23:41:54.964Z,9.10
2023-04-27T23:44:21.607Z,10.30
2023-04-27T23:46:48.291Z,9.93
2023-04-27T23:49:15.590Z,11.93
2023-04-27T23:51:42.244Z,9.68
2023-04-27T23:54:08.950Z,9.75
2023-04-27T23:56:35.649Z,9.50
2023-04-27T23:59:02.357Z,10.10
